»·PEaware :: N410LR KPSP-KSNA

N410LR :: KPSP-KSNA

FLIGHT INFORMATION

Flight Status: Arrived
Operator: Privately registered:
United States
More flights under this callsign
Pilot: Christian M. (7618)
Aircraft: CESSNA 172 SKYHAWK
(C172)
More flights by this aircraft type
Origin: KPSP Palm Springs Intl
United States
Destination: KSNA John Wayne-Orange Co
United States
More flights between these airports :: More routes between these airports
Route: +
File this flight plan on PilotEdge
Remarks:
Altitude:
(Current/Filed)
4,500ft
Speed:
(Current/Filed)
0kts
Departed: 11-Aug-17 08:15 PM
Arrived: 11-Aug-17 09:01 PM
Distance/Time
Traveled:
68nm/0:46
Distance/Time
To Go:
Arrived

Flight Plot

Page will automatically refresh every two minutes.


Map Options




Map Legend


Flown Route
Filed Route
Departure Airport
Arrival Airport
Navaid (VOR, NDB)
Fix

Horizontal Profiles

Position Reports

Time Latitude Longitude Heading Altitude Ground
Speed
11-Aug-17 20:08 33.825793 -116.507941 264 480ft 0kts
11-Aug-17 20:09 33.825793 -116.507944 264 480ft 0kts
11-Aug-17 20:10 33.825792 -116.507948 264 480ft 0kts
11-Aug-17 20:11 33.825792 -116.507950 264 480ft 0kts
11-Aug-17 20:12 33.825613 -116.506112 148 480ft 19kts
11-Aug-17 20:13 33.821632 -116.502560 144 480ft 23kts
11-Aug-17 20:14 33.818500 -116.499338 68 480ft 0kts
11-Aug-17 20:15 33.818503 -116.499331 68 480ft 0kts
11-Aug-17 20:16 33.818504 -116.499065 85 480ft 0kts
11-Aug-17 20:17 33.818699 -116.498351 37 480ft 13kts
11-Aug-17 20:18 33.830577 -116.507974 328 835ft 72kts
11-Aug-17 20:19 33.846537 -116.523066 318 1577ft 72kts
11-Aug-17 20:20 33.862155 -116.538620 317 2280ft 75kts
11-Aug-17 20:21 33.878353 -116.555912 317 2789ft 90kts
11-Aug-17 20:22 33.894653 -116.576895 296 3562ft 85kts
11-Aug-17 20:23 33.906155 -116.602034 285 4183ft 86kts
11-Aug-17 20:24 33.913246 -116.628901 277 4620ft 113kts
11-Aug-17 20:25 33.917318 -116.666950 273 4678ft 114kts
11-Aug-17 20:26 33.923813 -116.706372 276 4623ft 124kts
11-Aug-17 20:27 33.926149 -116.745165 271 4492ft 107kts
11-Aug-17 20:28 33.929279 -116.779630 268 4591ft 99kts
11-Aug-17 20:29 33.929459 -116.815152 272 4579ft 106kts
11-Aug-17 20:30 33.930727 -116.850642 273 4643ft 107kts
11-Aug-17 20:31 33.932125 -116.883109 273 4649ft 112kts
11-Aug-17 20:32 33.934741 -116.921832 274 4621ft 116kts
11-Aug-17 20:33 33.942409 -116.959103 288 4615ft 118kts
11-Aug-17 20:34 33.959966 -116.991092 305 4657ft 114kts
11-Aug-17 20:35 33.980589 -117.020228 318 4634ft 119kts
11-Aug-17 20:36 34.003864 -117.048000 313 4562ft 116kts
11-Aug-17 20:37 34.018860 -117.080137 290 4645ft 113kts
11-Aug-17 20:38 34.029297 -117.119566 281 4574ft 126kts
11-Aug-17 20:39 34.039311 -117.158449 295 4421ft 115kts
11-Aug-17 20:40 34.045049 -117.194955 276 4469ft 109kts
11-Aug-17 20:41 34.045827 -117.234679 257 4486ft 122kts
11-Aug-17 20:42 34.029629 -117.268310 222 4495ft 115kts
11-Aug-17 20:43 34.005198 -117.297414 223 4498ft 127kts
11-Aug-17 20:44 33.979795 -117.326797 223 4480ft 124kts
11-Aug-17 20:45 33.956841 -117.353398 223 4495ft 110kts
11-Aug-17 20:46 33.933738 -117.380124 223 4490ft 117kts
11-Aug-17 20:47 33.912724 -117.412913 237 4480ft 127kts
11-Aug-17 20:48 33.895053 -117.446828 237 4483ft 116kts
11-Aug-17 20:49 33.886974 -117.486672 265 4500ft 126kts
11-Aug-17 20:50 33.885609 -117.527066 265 4362ft 114kts
11-Aug-17 20:51 33.884459 -117.565746 267 4646ft 112kts
11-Aug-17 20:52 33.883481 -117.606263 260 4343ft 120kts
11-Aug-17 20:53 33.878388 -117.645673 265 4316ft 119kts
11-Aug-17 20:54 33.873576 -117.685563 244 4433ft 123kts
11-Aug-17 20:55 33.857805 -117.723711 236 3822ft 132kts
11-Aug-17 20:56 33.839516 -117.759781 238 2800ft 123kts
11-Aug-17 20:57 33.812344 -117.781146 194 1930ft 111kts
11-Aug-17 20:58 33.790454 -117.800436 217 1353ft 99kts
11-Aug-17 20:59 33.765032 -117.812921 194 1396ft 101kts
11-Aug-17 21:00 33.742610 -117.826292 204 1617ft 87kts
11-Aug-17 21:01 33.721565 -117.838887 206 1461ft 78kts
11-Aug-17 21:03 33.702372 -117.850760 206 945ft 71kts
11-Aug-17 21:04 33.686610 -117.860180 208 228ft 54kts
11-Aug-17 21:05 33.677044 -117.865866 135 59ft 2kts

Navigation Log

Ident Type
1. KPSP Airport
2. KSNA Airport